Detroit, Michigan
Current Conditions -  °F | °C
As of 12:00 AM on Sunday 26 Oct 2014 (Local Time) from CYQG Reporting Station
Clear Clear  
Wind Chill: 52°   Ceiling: Unl
Heat Index: 52°   Visibility: 15mi
Dew Point: 34°   Wind: 10mph
Humidity: 50%   Direction: 280°W
Pressure: 29.8"   Gusts: NA
Location:  42.33°N, 83.05°W
Report Text: CYQG 260400Z 28009KT 15SM SKC 11/01 A2980 RMK SLP093
Loading
Personal Weather Stations






























Interactive Weather Map
Tropical Storm Tracking
New forecast layout! Learn more

10-Day Weather Forecast

Advertisements
Track Severe Weather on mobile